Terminal Aerodrome Forecast
Issued by NWS Milwaukee/Sullivan, WI

Home | Current Version | Previous Version | Text Only | Print | Product List | Glossary On
Versions: 1 2 3 4 5 6 7 8 9 10 11 12 13 14 15 16 17 18 19 20 21 22 23 24 25 26 27 28 29 30 31 32 33 34 35 36 37 38 39 40 41 42 43 44 45 46 47 48 49 50
000
FTUS43 KMKX 222036 AAB
TAFMSN
TAF AMD
KMSN 222036Z 2221/2318 11010KT 2SM -RASN BR BKN010 OVC019
     FM222200 11011G19KT 2SM -RA BR OVC015
     FM230600 09011G18KT 1SM RA BR OVC003
     FM231200 10008KT 1 1/2SM -RA BR OVC003
     FM231500 12007KT 1 1/2SM BR OVC003=

USA.gov is the U.S. government's official web portal to all federal, state and local government web resources and services.